sensor_id;sensor_type;location;lat;lon;timestamp;pressure;altitude;pressure_sealevel;temperature;humidity
39083;BME280;24834;44.444;26.098;2023-10-31T00:01:40;100675.66;;;17.96;
39083;BME280;24834;44.444;26.098;2023-10-31T00:07:42;100668.53;;;17.88;
39083;BME280;24834;44.444;26.098;2023-10-31T00:13:48;100661.13;;;17.94;
39083;BME280;24834;44.444;26.098;2023-10-31T00:19:50;100664.03;;;17.80;
39083;BME280;24834;44.444;26.098;2023-10-31T00:25:52;100659.94;;;17.83;
39083;BME280;24834;44.444;26.098;2023-10-31T00:31:55;100657.66;;;17.73;
39083;BME280;24834;44.444;26.098;2023-10-31T00:37:57;100646.69;;;17.74;
39083;BME280;24834;44.444;26.098;2023-10-31T00:44:01;100636.34;;;17.52;
39083;BME280;24834;44.444;26.098;2023-10-31T00:50:08;100633.91;;;17.38;
39083;BME280;24834;44.444;26.098;2023-10-31T00:56:17;100619.03;;;17.46;
39083;BME280;24834;44.444;26.098;2023-10-31T01:02:23;100625.97;;;17.30;
39083;BME280;24834;44.444;26.098;2023-10-31T01:08:27;100613.34;;;17.18;
39083;BME280;24834;44.444;26.098;2023-10-31T01:14:36;100602.72;;;17.18;
39083;BME280;24834;44.444;26.098;2023-10-31T01:20:40;100602.28;;;17.16;
39083;BME280;24834;44.444;26.098;2023-10-31T01:26:50;100609.47;;;17.16;
39083;BME280;24834;44.444;26.098;2023-10-31T01:32:54;100598.88;;;16.98;
39083;BME280;24834;44.444;26.098;2023-10-31T01:38:57;100607.81;;;16.94;
39083;BME280;24834;44.444;26.098;2023-10-31T01:45:03;100608.28;;;16.87;
39083;BME280;24834;44.444;26.098;2023-10-31T01:51:06;100610.53;;;16.85;
39083;BME280;24834;44.444;26.098;2023-10-31T05:06:23;100563.44;;;15.88;
39083;BME280;24834;44.444;26.098;2023-10-31T05:12:26;100564.22;;;15.89;
39083;BME280;24834;44.444;26.098;2023-10-31T05:18:29;100569.84;;;16.04;
39083;BME280;24834;44.444;26.098;2023-10-31T05:24:32;100564.84;;;16.11;
39083;BME280;24834;44.444;26.098;2023-10-31T05:30:34;100573.28;;;16.13;
39083;BME280;24834;44.444;26.098;2023-10-31T05:36:36;100570.94;;;16.29;
39083;BME280;24834;44.444;26.098;2023-10-31T05:42:39;100565.78;;;16.32;
39083;BME280;24834;44.444;26.098;2023-10-31T05:48:44;100575.13;;;16.38;
39083;BME280;24834;44.444;26.098;2023-10-31T05:54:48;100576.22;;;16.55;
39083;BME280;24834;44.444;26.098;2023-10-31T06:00:50;100570.09;;;16.63;
39083;BME280;24834;44.444;26.098;2023-10-31T06:06:52;100576.28;;;16.84;
39083;BME280;24834;44.444;26.098;2023-10-31T06:12:55;100557.81;;;16.96;
39083;BME280;24834;44.444;26.098;2023-10-31T06:18:58;100578.97;;;17.13;
39083;BME280;24834;44.444;26.098;2023-10-31T06:25:00;100580.59;;;17.35;
39083;BME280;24834;44.444;26.098;2023-10-31T06:31:03;100572.47;;;17.40;
39083;BME280;24834;44.444;26.098;2023-10-31T06:37:06;100578.56;;;17.61;
39083;BME280;24834;44.444;26.098;2023-10-31T06:43:19;100575.13;;;17.61;
39083;BME280;24834;44.444;26.098;2023-10-31T06:49:23;100575.78;;;17.78;
39083;BME280;24834;44.444;26.098;2023-10-31T06:55:26;100576.72;;;18.15;
39083;BME280;24834;44.444;26.098;2023-10-31T07:01:28;100577.59;;;18.40;
39083;BME280;24834;44.444;26.098;2023-10-31T07:07:34;100570.66;;;18.59;
39083;BME280;24834;44.444;26.098;2023-10-31T07:13:38;100561.16;;;18.95;
39083;BME280;24834;44.444;26.098;2023-10-31T07:19:40;100559.13;;;19.28;
39083;BME280;24834;44.444;26.098;2023-10-31T07:25:46;100560.66;;;19.53;
39083;BME280;24834;44.444;26.098;2023-10-31T07:31:49;100565.47;;;19.75;
39083;BME280;24834;44.444;26.098;2023-10-31T07:37:54;100555.09;;;20.01;
39083;BME280;24834;44.444;26.098;2023-10-31T07:43:56;100545.69;;;20.20;
39083;BME280;24834;44.444;26.098;2023-10-31T07:49:59;100530.94;;;20.41;
39083;BME280;24834;44.444;26.098;2023-10-31T07:56:02;100524.06;;;20.56;
39083;BME280;24834;44.444;26.098;2023-10-31T08:02:05;100524.53;;;20.77;
39083;BME280;24834;44.444;26.098;2023-10-31T08:08:08;100508.84;;;20.91;
39083;BME280;24834;44.444;26.098;2023-10-31T08:14:10;100498.44;;;21.05;
39083;BME280;24834;44.444;26.098;2023-10-31T08:20:14;100485.50;;;21.26;
39083;BME280;24834;44.444;26.098;2023-10-31T08:26:17;100481.91;;;21.38;
39083;BME280;24834;44.444;26.098;2023-10-31T08:32:20;100471.63;;;21.59;
39083;BME280;24834;44.444;26.098;2023-10-31T08:38:26;100461.25;;;21.77;
39083;BME280;24834;44.444;26.098;2023-10-31T08:44:33;100448.31;;;21.82;
39083;BME280;24834;44.444;26.098;2023-10-31T08:50:36;100435.34;;;22.07;
39083;BME280;24834;44.444;26.098;2023-10-31T08:56:40;100416.06;;;22.24;
39083;BME280;24834;44.444;26.098;2023-10-31T09:02:44;100398.75;;;22.44;
39083;BME280;24834;44.444;26.098;2023-10-31T09:08:49;100392.88;;;22.65;
39083;BME280;24834;44.444;26.098;2023-10-31T09:15:05;100392.88;;;22.65;
39083;BME280;24834;44.444;26.098;2023-10-31T09:21:10;100380.59;;;22.64;
39083;BME280;24834;44.444;26.098;2023-10-31T09:27:12;100390.59;;;22.67;
39083;BME280;24834;44.444;26.098;2023-10-31T09:33:15;100384.47;;;22.66;
39083;BME280;24834;44.444;26.098;2023-10-31T09:39:21;100377.84;;;22.87;
39083;BME280;24834;44.444;26.098;2023-10-31T09:45:25;100360.34;;;23.03;
39083;BME280;24834;44.444;26.098;2023-10-31T09:51:28;100345.75;;;22.97;
39083;BME280;24834;44.444;26.098;2023-10-31T09:57:32;100340.56;;;23.15;
39083;BME280;24834;44.444;26.098;2023-10-31T10:03:36;100329.94;;;23.29;
39083;BME280;24834;44.444;26.098;2023-10-31T10:09:40;100315.84;;;23.39;
39083;BME280;24834;44.444;26.098;2023-10-31T10:15:51;100305.25;;;23.60;
39083;BME280;24834;44.444;26.098;2023-10-31T10:21:58;100297.69;;;23.76;
39083;BME280;24834;44.444;26.098;2023-10-31T10:28:03;100305.81;;;23.90;
39083;BME280;24834;44.444;26.098;2023-10-31T10:40:13;100293.75;;;24.46;
39083;BME280;24834;44.444;26.098;2023-10-31T10:46:17;100273.84;;;24.68;
39083;BME280;24834;44.444;26.098;2023-10-31T10:52:23;100256.56;;;24.79;
39083;BME280;24834;44.444;26.098;2023-10-31T11:05:00;100246.13;;;25.31;
39083;BME280;24834;44.444;26.098;2023-10-31T11:11:05;100240.00;;;25.16;
39083;BME280;24834;44.444;26.098;2023-10-31T11:17:22;100230.72;;;25.42;
39083;BME280;24834;44.444;26.098;2023-10-31T11:23:28;100236.41;;;25.68;
39083;BME280;24834;44.444;26.098;2023-10-31T11:29:32;100224.38;;;25.91;
39083;BME280;24834;44.444;26.098;2023-10-31T11:35:36;100205.00;;;26.10;
39083;BME280;24834;44.444;26.098;2023-10-31T11:41:50;100192.72;;;26.05;
39083;BME280;24834;44.444;26.098;2023-10-31T11:47:54;100189.09;;;26.29;
39083;BME280;24834;44.444;26.098;2023-10-31T11:54:02;100184.78;;;26.39;
39083;BME280;24834;44.444;26.098;2023-10-31T12:00:06;100176.31;;;26.40;
39083;BME280;24834;44.444;26.098;2023-10-31T12:06:15;100155.59;;;26.30;
39083;BME280;24834;44.444;26.098;2023-10-31T12:12:30;100141.91;;;26.55;
39083;BME280;24834;44.444;26.098;2023-10-31T12:18:34;100142.22;;;26.61;
39083;BME280;24834;44.444;26.098;2023-10-31T12:24:38;100145.19;;;26.73;
39083;BME280;24834;44.444;26.098;2023-10-31T12:30:44;100141.44;;;26.60;
39083;BME280;24834;44.444;26.098;2023-10-31T12:36:50;100132.66;;;26.52;
39083;BME280;24834;44.444;26.098;2023-10-31T12:42:56;100123.13;;;26.44;
39083;BME280;24834;44.444;26.098;2023-10-31T12:48:58;100117.03;;;26.33;
39083;BME280;24834;44.444;26.098;2023-10-31T12:55:12;100114.44;;;26.23;
39083;BME280;24834;44.444;26.098;2023-10-31T13:01:17;100106.25;;;26.37;
39083;BME280;24834;44.444;26.098;2023-10-31T13:07:26;100097.13;;;26.24;
39083;BME280;24834;44.444;26.098;2023-10-31T13:13:30;100086.88;;;26.05;
39083;BME280;24834;44.444;26.098;2023-10-31T13:19:32;100080.25;;;26.09;
39083;BME280;24834;44.444;26.098;2023-10-31T13:25:34;100081.16;;;25.96;
39083;BME280;24834;44.444;26.098;2023-10-31T13:31:38;100061.94;;;25.94;
39083;BME280;24834;44.444;26.098;2023-10-31T13:37:46;100041.28;;;25.77;
39083;BME280;24834;44.444;26.098;2023-10-31T13:43:51;100041.44;;;25.55;
39083;BME280;24834;44.444;26.098;2023-10-31T13:49:55;100031.56;;;25.31;
39083;BME280;24834;44.444;26.098;2023-10-31T13:56:00;100014.00;;;25.02;
39083;BME280;24834;44.444;26.098;2023-10-31T14:02:05;99995.69;;;24.72;
39083;BME280;24834;44.444;26.098;2023-10-31T14:08:07;99988.09;;;24.57;
39083;BME280;24834;44.444;26.098;2023-10-31T14:14:10;99978.09;;;24.33;
39083;BME280;24834;44.444;26.098;2023-10-31T14:20:17;99978.91;;;24.15;
39083;BME280;24834;44.444;26.098;2023-10-31T14:26:21;99980.81;;;24.04;
39083;BME280;24834;44.444;26.098;2023-10-31T14:32:24;99976.66;;;23.89;
39083;BME280;24834;44.444;26.098;2023-10-31T14:38:26;99991.22;;;23.78;
39083;BME280;24834;44.444;26.098;2023-10-31T14:44:34;99967.81;;;23.64;
39083;BME280;24834;44.444;26.098;2023-10-31T14:50:37;99947.09;;;23.61;
39083;BME280;24834;44.444;26.098;2023-10-31T14:56:42;99956.28;;;23.53;
39083;BME280;24834;44.444;26.098;2023-10-31T15:02:44;99967.75;;;23.36;
39083;BME280;24834;44.444;26.098;2023-10-31T15:08:47;99965.78;;;23.22;
39083;BME280;24834;44.444;26.098;2023-10-31T15:14:50;99960.38;;;23.12;
39083;BME280;24834;44.444;26.098;2023-10-31T15:20:55;99971.84;;;23.02;
39083;BME280;24834;44.444;26.098;2023-10-31T15:26:59;99971.84;;;22.98;
39083;BME280;24834;44.444;26.098;2023-10-31T15:33:02;99963.31;;;22.82;
39083;BME280;24834;44.444;26.098;2023-10-31T15:39:05;99977.88;;;22.77;
39083;BME280;24834;44.444;26.098;2023-10-31T15:45:09;99970.59;;;22.82;
39083;BME280;24834;44.444;26.098;2023-10-31T15:51:16;99974.81;;;22.79;
39083;BME280;24834;44.444;26.098;2023-10-31T15:57:18;99984.69;;;22.61;
39083;BME280;24834;44.444;26.098;2023-10-31T16:03:23;99998.41;;;22.52;
39083;BME280;24834;44.444;26.098;2023-10-31T16:09:27;99995.34;;;22.50;
39083;BME280;24834;44.444;26.098;2023-10-31T16:15:29;99996.84;;;22.51;
39083;BME280;24834;44.444;26.098;2023-10-31T16:21:35;99981.16;;;22.46;
39083;BME280;24834;44.444;26.098;2023-10-31T16:27:37;99973.84;;;22.43;
39083;BME280;24834;44.444;26.098;2023-10-31T16:33:40;99979.94;;;22.37;
39083;BME280;24834;44.444;26.098;2023-10-31T16:39:43;99989.75;;;22.22;
39083;BME280;24834;44.444;26.098;2023-10-31T16:45:45;99984.34;;;22.12;
39083;BME280;24834;44.444;26.098;2023-10-31T16:51:50;99993.88;;;22.13;
39083;BME280;24834;44.444;26.098;2023-10-31T16:57:52;99990.38;;;22.05;
39083;BME280;24834;44.444;26.098;2023-10-31T17:03:55;99982.72;;;22.00;
39083;BME280;24834;44.444;26.098;2023-10-31T17:09:58;99978.84;;;21.97;
39083;BME280;24834;44.444;26.098;2023-10-31T17:16:01;99981.88;;;21.96;
39083;BME280;24834;44.444;26.098;2023-10-31T17:22:04;99968.78;;;21.84;
39083;BME280;24834;44.444;26.098;2023-10-31T17:28:07;99961.09;;;21.79;
39083;BME280;24834;44.444;26.098;2023-10-31T17:34:10;99960.63;;;21.73;
39083;BME280;24834;44.444;26.098;2023-10-31T17:40:12;99954.06;;;21.64;
39083;BME280;24834;44.444;26.098;2023-10-31T17:46:14;99946.31;;;21.52;
39083;BME280;24834;44.444;26.098;2023-10-31T17:52:18;99952.44;;;21.52;
39083;BME280;24834;44.444;26.098;2023-10-31T17:58:20;99944.13;;;21.27;
39083;BME280;24834;44.444;26.098;2023-10-31T18:04:23;99942.25;;;21.28;
39083;BME280;24834;44.444;26.098;2023-10-31T18:10:25;99950.81;;;21.11;
39083;BME280;24834;44.444;26.098;2023-10-31T18:16:28;99944.53;;;20.96;
39083;BME280;24834;44.444;26.098;2023-10-31T18:22:31;99945.44;;;20.81;
39083;BME280;24834;44.444;26.098;2023-10-31T18:28:35;99950.09;;;20.84;
39083;BME280;24834;44.444;26.098;2023-10-31T18:34:38;99949.66;;;20.82;
39083;BME280;24834;44.444;26.098;2023-10-31T18:40:40;99940.22;;;20.88;
39083;BME280;24834;44.444;26.098;2023-10-31T18:46:43;99927.25;;;20.90;
39083;BME280;24834;44.444;26.098;2023-10-31T18:52:45;99921.09;;;20.86;
39083;BME280;24834;44.444;26.098;2023-10-31T18:58:49;99938.38;;;20.92;
39083;BME280;24834;44.444;26.098;2023-10-31T19:05:04;99936.06;;;20.94;
39083;BME280;24834;44.444;26.098;2023-10-31T19:11:06;99926.84;;;20.88;
39083;BME280;24834;44.444;26.098;2023-10-31T19:17:11;99924.06;;;20.81;
39083;BME280;24834;44.444;26.098;2023-10-31T19:23:13;99922.44;;;20.73;
39083;BME280;24834;44.444;26.098;2023-10-31T19:29:16;99907.91;;;20.70;
39083;BME280;24834;44.444;26.098;2023-10-31T19:35:18;99914.81;;;20.71;
39083;BME280;24834;44.444;26.098;2023-10-31T19:41:25;99914.94;;;20.82;
39083;BME280;24834;44.444;26.098;2023-10-31T19:47:27;99912.00;;;20.91;
39083;BME280;24834;44.444;26.098;2023-10-31T19:53:30;99908.22;;;20.95;
39083;BME280;24834;44.444;26.098;2023-10-31T19:59:32;99887.28;;;20.97;
39083;BME280;24834;44.444;26.098;2023-10-31T20:05:37;99882.53;;;20.87;
39083;BME280;24834;44.444;26.098;2023-10-31T20:11:44;99877.59;;;20.89;
39083;BME280;24834;44.444;26.098;2023-10-31T20:17:47;99877.56;;;20.86;
39083;BME280;24834;44.444;26.098;2023-10-31T20:23:50;99871.56;;;20.92;
39083;BME280;24834;44.444;26.098;2023-10-31T20:29:52;99866.50;;;20.87;
39083;BME280;24834;44.444;26.098;2023-10-31T20:35:55;99869.94;;;20.84;
39083;BME280;24834;44.444;26.098;2023-10-31T20:41:57;99860.72;;;20.82;
39083;BME280;24834;44.444;26.098;2023-10-31T20:48:00;99880.19;;;20.82;
39083;BME280;24834;44.444;26.098;2023-10-31T20:54:02;99869.19;;;20.87;
39083;BME280;24834;44.444;26.098;2023-10-31T21:00:08;99876.75;;;20.82;
39083;BME280;24834;44.444;26.098;2023-10-31T21:06:10;99881.03;;;20.86;
39083;BME280;24834;44.444;26.098;2023-10-31T21:12:12;99889.75;;;20.83;
39083;BME280;24834;44.444;26.098;2023-10-31T21:18:15;99882.84;;;20.82;
39083;BME280;24834;44.444;26.098;2023-10-31T21:24:17;99871.28;;;20.71;
39083;BME280;24834;44.444;26.098;2023-10-31T21:30:21;99873.47;;;20.62;
39083;BME280;24834;44.444;26.098;2023-10-31T21:36:24;99860.84;;;20.62;
39083;BME280;24834;44.444;26.098;2023-10-31T21:42:26;99869.25;;;20.61;
39083;BME280;24834;44.444;26.098;2023-10-31T21:48:29;99860.81;;;20.59;
39083;BME280;24834;44.444;26.098;2023-10-31T21:54:31;99861.81;;;20.47;
39083;BME280;24834;44.444;26.098;2023-10-31T22:00:34;99870.19;;;20.46;
39083;BME280;24834;44.444;26.098;2023-10-31T22:06:36;99865.88;;;20.12;
39083;BME280;24834;44.444;26.098;2023-10-31T22:12:39;99864.28;;;20.07;
39083;BME280;24834;44.444;26.098;2023-10-31T22:18:43;99872.53;;;19.98;
39083;BME280;24834;44.444;26.098;2023-10-31T22:24:45;99880.91;;;19.97;
39083;BME280;24834;44.444;26.098;2023-10-31T22:30:48;99889.81;;;19.82;
39083;BME280;24834;44.444;26.098;2023-10-31T22:36:51;99892.41;;;19.78;
39083;BME280;24834;44.444;26.098;2023-10-31T22:42:56;99899.53;;;19.71;
39083;BME280;24834;44.444;26.098;2023-10-31T22:48:58;99892.72;;;19.54;
39083;BME280;24834;44.444;26.098;2023-10-31T22:55:00;99900.34;;;19.33;
39083;BME280;24834;44.444;26.098;2023-10-31T23:01:03;99902.19;;;19.10;
39083;BME280;24834;44.444;26.098;2023-10-31T23:07:08;99892.63;;;18.90;
39083;BME280;24834;44.444;26.098;2023-10-31T23:13:10;99893.81;;;18.92;
39083;BME280;24834;44.444;26.098;2023-10-31T23:19:12;99900.75;;;18.97;
39083;BME280;24834;44.444;26.098;2023-10-31T23:25:16;99920.66;;;18.84;
39083;BME280;24834;44.444;26.098;2023-10-31T23:31:19;99935.47;;;18.65;
39083;BME280;24834;44.444;26.098;2023-10-31T23:37:22;99953.44;;;18.53;
39083;BME280;24834;44.444;26.098;2023-10-31T23:43:24;99944.94;;;18.16;
39083;BME280;24834;44.444;26.098;2023-10-31T23:49:28;99960.31;;;18.07;
39083;BME280;24834;44.444;26.098;2023-10-31T23:55:30;99950.97;;;18.13;
